ULLI/LED METAR and TAF weather

Enter ICAO airport designator
Station Type Date Time Source
ULLI METAR 2018/09/20 18:00 UTC NOAA

ULLI 201800Z 21005MPS 9999 SCT043 18/14 Q1010 R88/090060 NOSIG


Station Type Date Time Source
ULLI Decoded METAR 2018/09/20 18:00 UTC NOAA

St. Peterburg, Russia (ULLI) 59-58N 030-18E 6M
Sep 20, 2018 - 02:00 PM EDT / 2018.09.20 1800 UTC
Wind: from the SSW (210 degrees) at 11 MPH (10 KT):0
Visibility: greater than 7 mile(s):0
Sky conditions: partly cloudy
Temperature: 64 F (18 C)
Dew Point: 57 F (14 C)
Relative Humidity: 77%
Pressure (altimeter): 29.83 in. Hg (1010 hPa)
ob: ULLI 201800Z 21005MPS 9999 SCT043 18/14 Q1010 R88/090060 NOSIG
cycle: 18

Station Type Date Time Source
ULLI TAF 2018/09/20 18:21 UTC NOAA

TAF TAF ULLI 201656Z 2018/2118 22003G08MPS 9999 SCT020
TEMPO 2103/2112 20004G09MPS 3100 -SHRA BKN011 BKN015CB
TEMPO 2112/2118 20007G12MPS


Example: see airport list